.
WxDataArchive / Data Records for 2006-12-01
2006-11-30 December 2006 2006-12-02

Data Records for Friday, 01 December 2006

Time	Temp	Chill	HIndex	Humid	Dewpt	 Wind 	HiWind	WindDir	Rain 	Barom 
-----	----	-----	------	-----	-----	------	------	-------	-----	----- 
00:00	39.1	39.1	39.1	94	37.5	3	11	112	0.00	29.807 
00:05	39.1	34.7	39.1	94	37.5	6	19	90	0.01	29.807 
00:10	38.9	34.4	38.9	93	37.1	6	13	112	0.00	29.807 
00:15	38.8	33.7	38.8	92	36.7	7	17	90	0.00	29.804 
00:20	38.8	35.1	38.8	92	36.7	5	16	90	0.00	29.804 
00:25	38.8	35.1	38.8	92	36.7	5	14	112	0.00	29.804 
00:30	38.8	35.9	38.8	92	36.7	4	11	112	0.00	29.791 
00:35	38.6	38.6	38.6	93	36.8	3	9	90	0.00	29.791 
00:40	38.5	34.7	38.5	93	36.7	5	13	90	0.00	29.791 
00:45	38.5	34.7	38.5	92	36.4	5	12	112	0.00	29.778 
00:50	38.3	35.4	38.3	93	36.5	4	12	90	0.00	29.778 
00:55	38.3	33.7	38.3	93	36.5	6	15	112	0.01	29.778 
01:00	38.3	38.3	38.3	93	36.5	3	7	45	0.00	29.776 
01:05	38.0	35.0	38.0	92	35.9	4	12	90	0.00	29.776 
01:10	37.9	34.9	37.9	92	35.8	4	11	112	0.02	29.776 
01:15	37.8	33.9	37.8	92	35.7	5	15	112	0.01	29.754 
01:20	37.6	31.1	37.6	92	35.5	9	19	112	0.01	29.754 
01:25	37.5	32.8	37.5	92	35.4	6	18	112	0.01	29.754 
01:30	37.6	32.2	37.6	93	35.8	7	14	112	0.01	29.754 
01:35	37.6	37.6	37.6	93	35.8	3	10	112	0.01	29.754 
01:40	37.6	32.9	37.6	93	35.8	6	13	112	0.01	29.754 
01:45	37.3	33.3	37.3	93	35.5	5	15	45	0.01	29.714 
01:50	37.3	32.5	37.3	93	35.5	6	16	112	0.01	29.714 
01:55	37.2	32.4	37.2	93	35.4	6	14	112	0.01	29.714 
02:00	37.2	33.2	37.2	93	35.4	5	13	112	0.02	29.698 
02:05	37.0	32.9	37.0	93	35.2	5	14	112	0.01	29.698 
02:10	36.9	32.1	36.9	93	35.1	6	15	112	0.01	29.698 
02:15	36.8	31.9	36.8	92	34.7	6	17	112	0.00	29.684 
02:20	36.8	32.7	36.8	93	35.0	5	11	112	0.01	29.684 
02:25	36.8	32.7	36.8	93	35.0	5	13	112	0.00	29.684 
02:30	36.6	32.5	36.6	93	34.8	5	14	112	0.01	29.673 
02:35	36.5	31.6	36.5	93	34.7	6	15	112	0.00	29.673 
02:40	36.5	32.4	36.5	93	34.7	5	14	90	0.01	29.673 
02:45	36.3	31.4	36.3	93	34.5	6	14	112	0.01	29.676 
02:50	36.3	33.0	36.3	93	34.5	4	12	112	0.01	29.676 
02:55	36.3	31.4	36.3	93	34.5	6	19	112	0.00	29.676 
03:00	36.2	30.0	36.2	93	34.4	8	24	112	0.00	29.650 
03:05	36.2	30.0	36.2	93	34.4	8	22	112	0.01	29.650 
03:10	36.2	30.0	36.2	93	34.4	8	17	112	0.00	29.650 
03:15	36.0	31.0	36.0	93	34.2	6	15	112	0.00	29.632 
03:20	35.9	29.6	35.9	92	33.8	8	21	90	0.00	29.632 
03:25	35.9	29.1	35.9	92	33.8	9	22	112	0.00	29.632 
03:30	35.9	31.7	35.9	92	33.8	5	13	90	0.02	29.625 
03:35	35.9	32.6	35.9	93	34.1	4	10	112	0.01	29.625 
03:40	35.8	32.5	35.8	93	34.0	4	13	112	0.01	29.625 
03:45	35.6	31.3	35.6	93	33.8	5	13	90	0.02	29.622 
03:50	35.5	29.1	35.5	93	33.7	8	19	112	0.03	29.622 
03:55	35.5	31.2	35.5	93	33.7	5	14	112	0.02	29.622 
04:00	35.5	30.4	35.5	94	33.9	6	16	112	0.03	29.586 
04:05	35.3	29.5	35.3	94	33.7	7	16	112	0.02	29.586 
04:10	35.2	28.7	35.2	94	33.6	8	18	112	0.02	29.586 
04:15	35.2	29.4	35.2	94	33.6	7	15	112	0.04	29.558 
04:20	34.9	27.3	34.9	94	33.4	10	21	112	0.03	29.558 
04:25	34.9	29.0	34.9	94	33.4	7	15	112	0.03	29.558 
04:30	34.9	29.0	34.9	94	33.4	7	18	90	0.03	29.530 
04:35	34.9	27.8	34.9	94	33.4	9	19	112	0.03	29.530 
04:40	34.9	29.0	34.9	94	33.4	7	19	112	0.03	29.530 
04:45	34.9	30.5	34.9	94	33.4	5	15	90	0.04	29.524 
04:50	34.7	28.8	34.7	94	33.2	7	15	112	0.02	29.524 
04:55	34.7	27.1	34.7	94	33.2	10	20	112	0.03	29.524 
05:00	34.7	26.6	34.7	94	33.2	11	21	112	0.07	29.495 
05:05	34.6	27.5	34.6	94	33.1	9	25	112	0.08	29.495 
05:10	34.4	25.4	34.4	94	32.9	13	22	112	0.03	29.495 
05:15	34.4	25.8	34.4	93	32.6	12	24	112	0.01	29.486 
05:20	34.3	26.6	34.3	93	32.5	10	24	112	0.01	29.486 
05:25	34.4	26.2	34.4	93	32.6	11	24	112	0.01	29.486 
05:30	34.4	26.7	34.4	93	32.6	10	21	112	0.00	29.492 
05:35	34.4	27.2	34.4	93	32.6	9	19	112	0.00	29.492 
05:40	34.4	27.2	34.4	94	32.9	9	17	112	0.01	29.492 
05:45	34.4	28.4	34.4	94	32.9	7	20	112	0.00	29.467 
05:50	34.6	27.5	34.6	94	33.1	9	16	112	0.00	29.467 
05:55	34.6	28.6	34.6	93	32.8	7	21	112	0.00	29.467 
06:00	34.6	28.6	34.6	93	32.8	7	17	112	0.00	29.455 
06:05	34.6	28.0	34.6	94	33.1	8	14	112	0.01	29.455 
06:10	34.7	30.2	34.7	94	33.2	5	17	90	0.00	29.455 
06:15	34.9	29.7	34.9	94	33.4	6	16	112	0.00	29.481 
06:20	34.9	29.7	34.9	94	33.4	6	15	112	0.00	29.481 
06:25	34.9	28.4	34.9	94	33.4	8	16	112	0.02	29.481 
06:30	34.9	28.4	34.9	94	33.4	8	16	112	0.01	29.463 
06:35	34.9	27.8	34.9	94	33.4	9	18	112	0.02	29.463 
06:40	34.9	29.0	34.9	94	33.4	7	18	112	0.00	29.463 
06:45	35.0	27.9	35.0	95	33.7	9	20	112	0.02	29.390 
06:50	35.0	27.0	35.0	95	33.7	11	25	112	0.01	29.390 
06:55	35.0	27.9	35.0	95	33.7	9	21	112	0.00	29.390 
07:00	35.0	28.5	35.0	95	33.7	8	18	112	0.00	29.360 
07:05	35.2	27.7	35.2	95	33.9	10	18	112	0.00	29.360 
07:10	35.3	27.8	35.3	95	34.0	10	22	112	0.00	29.360 
07:15	35.3	28.9	35.3	95	34.0	8	18	112	0.00	29.388 
07:20	35.6	30.5	35.6	95	34.3	6	14	112	0.00	29.388 
07:25	35.8	32.5	35.8	95	34.5	4	10	112	0.00	29.388 
07:30	36.3	33.0	36.3	95	35.0	4	11	112	0.00	29.392 
07:35	36.3	33.0	36.3	95	35.0	4	9	112	0.00	29.392 
07:40	36.3	33.0	36.3	94	34.7	4	7	90	0.01	29.392 
07:45	36.6	32.5	36.6	95	35.3	5	10	112	0.00	29.385 
07:50	36.9	33.7	36.9	95	35.6	4	11	112	0.00	29.385 
07:55	37.0	37.0	37.0	95	35.7	2	7	112	0.00	29.385 
08:00	37.2	33.2	37.2	95	35.9	5	14	112	0.00	29.358 
08:05	37.3	33.3	37.3	95	36.0	5	13	112	0.00	29.358 
08:10	37.2	34.1	37.2	94	35.6	4	11	112	0.00	29.358 
08:15	37.2	37.2	37.2	94	35.6	2	7	112	0.00	29.375 
08:20	37.3	37.3	37.3	95	36.0	3	10	112	0.00	29.375 
08:25	37.5	37.5	37.5	95	36.2	2	7	112	0.00	29.375 
08:30	37.5	37.5	37.5	94	35.9	2	4	112	0.00	29.370 
08:35	37.6	37.6	37.6	95	36.3	2	5	112	0.00	29.370 
08:40	37.6	37.6	37.6	95	36.3	3	9	112	0.00	29.370 
08:45	37.8	37.8	37.8	95	36.5	1	3	90	0.00	29.361 
08:50	37.9	37.9	37.9	95	36.6	1	3	90	0.00	29.361 
08:55	38.0	38.0	38.0	95	36.7	1	3	112	0.00	29.361 
09:00	38.0	38.0	38.0	95	36.7	0	1	112	0.01	29.370 
09:05	38.2	38.2	38.2	95	36.9	1	3	112	0.01	29.370 
09:10	38.8	38.8	38.8	96	37.8	2	3	112	0.00	29.370 
09:15	39.1	39.1	39.1	96	38.1	2	4	135	0.00	29.372 
09:20	39.1	39.1	39.1	96	38.1	2	6	112	0.00	29.372 
09:25	39.6	39.6	39.6	95	38.3	2	9	68	0.00	29.372 
09:30	40.2	40.2	40.2	95	38.9	3	12	248	0.00	29.375 
09:35	41.3	37.3	41.3	94	39.7	6	19	248	0.00	29.375 
09:40	41.9	36.4	41.9	90	39.2	9	23	270	0.00	29.375 
09:45	41.2	35.6	41.2	85	37.0	9	23	270	0.01	29.384 
09:50	40.6	35.3	40.6	85	36.4	8	18	270	0.00	29.384 
09:55	40.6	34.4	40.6	84	36.2	10	20	248	0.00	29.384 
10:00	40.5	34.7	40.5	84	36.1	9	17	270	0.00	29.385 
10:05	40.3	35.5	40.3	84	35.9	7	18	270	0.00	29.385 
10:10	40.3	34.5	40.3	81	34.9	9	16	270	0.00	29.385 
10:15	40.5	35.2	40.5	80	34.8	8	23	248	0.00	29.390 
10:20	40.2	34.8	40.2	78	33.9	8	19	270	0.00	29.390 
10:25	39.3	33.7	39.3	82	34.3	8	22	248	0.00	29.390 
10:30	38.9	33.8	38.9	82	33.9	7	19	270	0.00	29.401 
10:35	38.6	32.9	38.6	80	33.0	8	18	270	0.00	29.401 
10:40	38.3	32.0	38.3	80	32.7	9	19	270	0.00	29.401 
10:45	37.8	33.1	37.8	82	32.8	6	14	270	0.00	29.419 
10:50	37.6	31.1	37.6	78	31.4	9	18	270	0.00	29.419 
10:55	37.9	33.3	37.9	77	31.3	6	17	248	0.00	29.419 
11:00	38.0	32.2	38.0	73	30.1	8	20	248	0.00	29.420 
11:05	38.2	31.0	38.2	72	30.0	11	21	270	0.00	29.420 
11:10	38.2	31.0	38.2	69	28.9	11	26	270	0.00	29.420 
11:15	38.0	31.6	38.0	70	29.1	9	18	270	0.00	29.423 
11:20	38.0	32.7	38.0	71	29.4	7	15	270	0.00	29.423 
11:25	37.6	30.2	37.6	72	29.4	11	23	270	0.00	29.423 
11:30	37.3	30.8	37.3	71	28.8	9	16	270	0.00	29.427 
11:35	36.6	29.0	36.6	74	29.1	11	25	270	0.00	29.427 
11:40	35.2	27.7	35.2	81	30.0	10	22	270	0.00	29.427 
11:45	34.0	27.3	34.0	85	30.0	8	18	270	0.00	29.444 
11:50	33.2	25.7	33.2	85	29.2	9	18	248	0.00	29.444 
11:55	32.5	24.3	32.5	84	28.2	10	23	270	0.00	29.444 
12:00	31.9	23.6	31.9	84	27.6	10	25	248	0.00	29.456 
12:05	31.3	22.9	31.3	84	27.0	10	22	248	0.00	29.456 
12:10	31.0	22.0	31.0	84	26.7	11	20	248	0.00	29.456 
12:15	31.0	23.0	31.0	84	26.7	9	21	248	0.00	29.457 
12:20	31.0	23.6	31.0	83	26.5	8	17	248	0.00	29.457 
12:25	31.2	23.9	31.2	82	26.4	8	19	248	0.00	29.457 
12:30	31.2	23.3	31.2	80	25.8	9	20	248	0.00	29.459 
12:35	31.2	23.9	31.2	80	25.8	8	17	248	0.00	29.459 
12:40	31.3	24.0	31.3	80	25.9	8	18	270	0.00	29.459 
12:45	31.3	26.3	31.3	82	26.5	5	10	270	0.00	29.468 
12:50	31.3	24.7	31.3	83	26.7	7	14	270	0.00	29.468 
12:55	31.3	25.4	31.3	84	27.0	6	15	270	0.00	29.468 
13:00	31.5	25.6	31.5	85	27.5	6	12	270	0.00	29.470 
13:05	31.9	25.4	31.9	85	27.9	7	19	270	0.00	29.470 
13:10	32.4	26.0	32.4	85	28.4	7	17	270	0.00	29.470 
13:15	32.5	26.1	32.5	85	28.5	7	15	248	0.00	29.485 
13:20	32.9	26.6	32.9	85	28.9	7	16	270	0.00	29.485 
13:25	33.2	26.3	33.2	85	29.2	8	17	270	0.00	29.485 
13:30	33.7	28.3	33.7	85	29.7	6	17	270	0.00	29.502 
13:35	34.1	28.0	34.1	84	29.8	7	16	248	0.00	29.502 
13:40	34.7	28.1	34.7	84	30.4	8	20	270	0.00	29.502 
13:45	35.0	27.9	35.0	84	30.7	9	17	270	0.00	29.528 
13:50	35.5	29.7	35.5	84	31.2	7	22	270	0.00	29.528 
13:55	36.0	29.7	36.0	84	31.6	8	17	270	0.00	29.528 
14:00	36.3	29.1	36.3	82	31.3	10	25	270	0.00	29.541 
14:05	36.6	29.9	36.6	82	31.6	9	18	270	0.00	29.541 
14:10	37.0	30.9	37.0	83	32.3	8	19	270	0.00	29.541 
14:15	37.2	31.8	37.2	83	32.5	7	14	270	0.00	29.557 
14:20	36.9	30.3	36.9	84	32.5	9	20	270	0.00	29.557 
14:25	36.9	31.4	36.9	84	32.5	7	17	270	0.00	29.557 
14:30	37.2	31.2	37.2	83	32.5	8	23	270	0.00	29.586 
14:35	37.3	31.3	37.3	83	32.6	8	21	270	0.00	29.586 
14:40	37.0	30.9	37.0	84	32.6	8	17	270	0.00	29.586 
14:45	36.2	29.4	36.2	85	32.1	9	22	270	0.00	29.612 
14:50	35.6	28.7	35.6	86	31.8	9	19	270	0.01	29.612 
14:55	35.2	28.7	35.2	86	31.4	8	19	270	0.00	29.612 
15:00	35.3	28.3	35.3	84	31.0	9	22	270	0.00	29.632 
15:05	35.3	28.9	35.3	83	30.7	8	21	270	0.00	29.632 
15:10	35.3	29.5	35.3	82	30.4	7	17	270	0.00	29.632 
15:15	35.3	28.9	35.3	80	29.8	8	19	270	0.00	29.670 
15:20	35.3	28.9	35.3	81	30.1	8	23	270	0.00	29.670 
15:25	35.2	29.4	35.2	80	29.7	7	17	270	0.00	29.670 
15:30	35.2	28.7	35.2	79	29.4	8	25	270	0.00	29.681 
15:35	35.2	28.7	35.2	79	29.4	8	22	270	0.00	29.681 
15:40	35.2	28.2	35.2	79	29.4	9	18	270	0.00	29.681 
15:45	35.0	28.5	35.0	80	29.5	8	18	270	0.00	29.702 
15:50	34.9	29.0	34.9	80	29.4	7	19	270	0.00	29.702 
15:55	34.7	29.4	34.7	81	29.5	6	17	270	0.00	29.702 
16:00	34.4	28.4	34.4	80	28.9	7	16	270	0.00	29.732 
16:05	34.1	28.0	34.1	80	28.6	7	16	270	0.00	29.732 
16:10	34.0	27.9	34.0	81	28.8	7	15	270	0.00	29.732 
16:15	33.7	27.5	33.7	81	28.5	7	18	270	0.00	29.762 
16:20	33.4	26.0	33.4	81	28.2	9	20	270	0.00	29.762 
16:25	33.2	26.9	33.2	81	28.0	7	16	270	0.00	29.762 
16:30	33.2	26.9	33.2	81	28.0	7	20	270	0.00	29.788 
16:35	33.2	26.9	33.2	81	28.0	7	18	270	0.00	29.788 
16:40	33.1	27.5	33.1	81	27.9	6	13	270	0.00	29.788 
16:45	32.9	26.6	32.9	81	27.7	7	15	270	0.00	29.816 
16:50	32.9	28.1	32.9	82	28.0	5	11	270	0.00	29.816 
16:55	32.8	26.5	32.8	81	27.6	7	15	270	0.00	29.816 
17:00	32.7	26.3	32.7	81	27.5	7	15	270	0.00	29.835 
17:05	32.5	27.7	32.5	81	27.3	5	14	270	0.00	29.835 
17:10	32.5	28.7	32.5	82	27.6	4	11	270	0.00	29.835 
17:15	32.4	27.5	32.4	81	27.2	5	16	270	0.00	29.856 
17:20	32.2	25.7	32.2	81	27.0	7	21	270	0.00	29.856 
17:25	32.1	25.6	32.1	81	26.9	7	14	270	0.00	29.856 
17:30	31.9	27.0	31.9	82	27.0	5	17	270	0.00	29.872 
17:35	31.8	25.3	31.8	81	26.6	7	22	270	0.00	29.872 
17:40	31.6	25.8	31.6	81	26.5	6	17	270	0.00	29.872 
17:45	31.5	25.6	31.5	82	26.7	6	15	270	0.00	29.896 
17:50	31.3	26.3	31.3	82	26.5	5	11	270	0.00	29.896 
17:55	31.2	25.3	31.2	81	26.1	6	12	270	0.00	29.896 
18:00	31.0	26.9	31.0	81	25.9	4	13	270	0.00	29.906 
18:05	30.9	25.8	30.9	81	25.8	5	11	270	0.00	29.906 
18:10	30.9	26.8	30.9	81	25.8	4	13	270	0.00	29.906 
18:15	30.9	25.8	30.9	81	25.8	5	10	270	0.00	29.925 
18:20	30.7	24.7	30.7	80	25.3	6	19	270	0.00	29.925 
18:25	30.7	25.5	30.7	80	25.3	5	13	270	0.00	29.925 
18:30	30.7	25.5	30.7	80	25.3	5	12	270	0.00	29.944 
18:35	30.7	26.6	30.7	80	25.3	4	11	270	0.00	29.944 
18:40	30.6	25.4	30.6	81	25.5	5	10	270	0.00	29.944 
18:45	30.4	25.2	30.4	80	25.0	5	10	270	0.00	29.956 
18:50	30.3	25.1	30.3	80	24.9	5	17	270	0.00	29.956 
18:55	30.3	25.1	30.3	80	24.9	5	13	270	0.00	29.956 
19:00	30.1	24.8	30.1	80	24.7	5	11	270	0.00	29.979 
19:05	30.1	24.8	30.1	80	24.7	5	11	270	0.00	29.979 
19:10	30.0	23.1	30.0	79	24.3	7	14	270	0.00	29.979 
19:15	30.0	24.7	30.0	80	24.6	5	17	270	0.00	29.994 
19:20	29.8	23.6	29.8	79	24.1	6	16	270	0.00	29.994 
19:25	29.8	23.6	29.8	79	24.1	6	15	270	0.00	29.994 
19:30	29.8	24.5	29.8	78	23.8	5	11	270	0.00	30.005 
19:35	29.7	24.4	29.7	79	24.0	5	13	270	0.00	30.005 
19:40	29.7	23.5	29.7	78	23.7	6	17	270	0.00	30.005 
19:45	29.7	25.4	29.7	78	23.7	4	9	270	0.00	30.012 
19:50	29.7	29.7	29.7	79	24.0	3	9	270	0.00	30.012 
19:55	29.5	25.2	29.5	79	23.8	4	10	270	0.00	30.012 
20:00	29.5	29.5	29.5	79	23.8	3	9	270	0.00	30.017 
20:05	29.5	29.5	29.5	79	23.8	3	11	270	0.00	30.017 
20:10	29.4	25.1	29.4	79	23.7	4	12	270	0.00	30.017 
20:15	29.4	25.1	29.4	79	23.7	4	12	270	0.00	30.027 
20:20	29.4	24.0	29.4	78	23.4	5	12	270	0.00	30.027 
20:25	29.4	25.1	29.4	78	23.4	4	13	248	0.00	30.027 
20:30	29.4	24.0	29.4	77	23.1	5	15	270	0.00	30.043 
20:35	29.3	23.0	29.3	77	23.0	6	18	270	0.00	30.043 
20:40	29.4	24.0	29.4	77	23.1	5	20	270	0.00	30.043 
20:45	29.3	23.9	29.3	77	23.0	5	14	270	0.00	30.059 
20:50	29.3	23.9	29.3	77	23.0	5	14	270	0.00	30.059 
20:55	29.1	22.8	29.1	77	22.8	6	14	270	0.00	30.059 
21:00	29.0	22.7	29.0	78	23.0	6	16	270	0.00	30.074 
21:05	29.0	23.6	29.0	78	23.0	5	17	270	0.00	30.074 
21:10	29.0	24.6	29.0	77	22.7	4	13	270	0.00	30.074 
21:15	28.8	22.4	28.8	76	22.2	6	12	270	0.00	30.071 
21:20	28.8	23.3	28.8	75	21.9	5	13	270	0.00	30.071 
21:25	28.8	23.3	28.8	74	21.6	5	14	270	0.00	30.071 
21:30	28.8	24.4	28.8	74	21.6	4	10	270	0.00	30.078 
21:35	29.0	24.6	29.0	76	22.4	4	13	270	0.00	30.078 
21:40	29.0	24.6	29.0	76	22.4	4	10	270	0.00	30.078 
21:45	28.8	22.4	28.8	75	21.9	6	16	270	0.00	30.089 
21:50	28.8	24.4	28.8	74	21.6	4	12	270	0.00	30.089 
21:55	28.8	23.3	28.8	73	21.3	5	12	270	0.00	30.089 
22:00	28.7	22.3	28.7	72	20.8	6	13	270	0.00	30.100 
22:05	28.5	24.0	28.5	73	21.0	4	9	270	0.00	30.100 
22:10	28.5	21.3	28.5	73	21.0	7	18	270	0.00	30.100 
22:15	28.4	21.9	28.4	73	20.9	6	15	270	0.00	30.121 
22:20	28.4	22.8	28.4	73	20.9	5	15	270	0.00	30.121 
22:25	28.4	23.9	28.4	73	20.9	4	12	270	0.00	30.121 
22:30	28.4	28.4	28.4	74	21.2	2	9	270	0.00	30.122 
22:35	28.2	23.7	28.2	73	20.7	4	9	270	0.00	30.122 
22:40	28.2	28.2	28.2	73	20.7	3	6	270	0.00	30.122 
22:45	28.2	28.2	28.2	74	21.0	3	10	270	0.00	30.133 
22:50	28.2	23.7	28.2	75	21.3	4	10	270	0.00	30.133 
22:55	28.1	21.6	28.1	73	20.6	6	15	270	0.00	30.133 
23:00	27.9	22.3	27.9	73	20.4	5	13	270	0.00	30.139 
23:05	27.8	22.1	27.8	72	20.0	5	15	270	0.00	30.139 
23:10	27.6	21.0	27.6	73	20.1	6	15	270	0.00	30.139 
23:15	27.5	20.9	27.5	72	19.7	6	14	248	0.00	30.149 
23:20	27.3	21.6	27.3	73	19.8	5	13	270	0.00	30.149 
23:25	27.2	21.4	27.2	72	19.4	5	12	248	0.00	30.149 
23:30	27.2	22.5	27.2	73	19.7	4	11	270	0.00	30.159 
23:35	27.0	21.2	27.0	73	19.5	5	14	270	0.00	30.159 
23:40	27.0	20.3	27.0	72	19.2	6	16	270	0.00	30.159 
23:45	26.9	21.1	26.9	71	18.8	5	12	270	0.00	30.173 
23:50	27.0	27.0	27.0	72	19.2	3	11	270	0.00	30.173 
23:55	26.9	21.1	26.9	71	18.8	5	13	270	0.00	30.173 

CoCoRaHS
IN-AL-39
A2 Web Hosting
Creative Commons License
GoDaddy
Look for:

loaded 2017-10-20 19:36:25 • last modified 2010-11-18 10:43:29
Privacy PolicyDisclaimer
• wx.awcolley.com is powered by PmWiki v.2002016 •
• all content (unless otherwise noted) © 2017 A W Colley